Delta, CO

2:55 AM MDT on August 22, 2014 (GMT -0600)
Garnet Mesa | Change Station
CLOSE
Current Station
Personal Weather Station
Location: Delta, CO
Elevation: 5046 ft
Nearby Weather Stations

Elev 5046 ft 38.75 °N, 108.04 °W | Updated 6 seconds ago

Overcast
Overcast
64.2 °F
Feels Like 64.2 °F
N
4.0
Wind Variable Wind from East
Gusts 6.0 mph

Today
High -- | Low -- °F
--% Chance of Precip.
Yesterday
High -- | Low -- °F
Precip. -- in
6:32 AM 7:56 PM
Waning Crescent, 9% visible
Pressure 30.14 in
Visibility 7.0 miles
Clouds Overcast 10000 ft
Dew Point 50 °F
Humidity 59%
Rainfall 0.00 in
Snow Depth Not available.
UV 0 out of 12
Pollen 8.90 out of 12
Air Quality Not available.
Flu Activity Not available.
METAR KAJZ 220835Z AUTO 08003KT 7SM -RA OVC100 22/08 A3014 RMK AO2 T02150080

More Conditions Fewer Conditions

Pressure 30.14 in
Visibility 7.0 miles
Clouds Overcast 10000 ft
Dew Point 50 °F
Humidity 59%
Rainfall 0.00 in
Snow Depth Not available.
UV 0 out of 12
Pollen 8.90 out of 12
Air Quality Not available.
Flu Activity Not available.
METAR KAJZ 220835Z AUTO 08003KT 7SM -RA OVC100 22/08 A3014 RMK AO2 T02150080

More Conditions Fewer Conditions

10-Day Weather Forecast

Almanac

Astronomy

Aug. 22, 2014 Rise Set
Actual Time 6:32 AM MDT 7:56 PM MDT
Civil Twilight 6:04 AM MDT 8:24 PM MDT
Nautical Twilight 5:31 AM MDT 8:58 PM MDT
Astronomical Twilight 4:55 AM MDT 9:33 PM MDT
Moon 3:58 AM MDT 6:06 PM MDT
Length of Visible Light 14h 20m
Length of Day
13h 24m
Tomorrow will be 2m 19s shorter.
Waning Crescent, 9% of the Moon is Illuminated
Today
Waning Crescent
Aug 25
New
Sep 2
First Quarter
Sep 8
Full
Sep 15
Last Quarter

Today's Extremes

State Highs State Lows

Community

WunderPhotos

Upload Photos

1,746,144 photos uploaded!

Nearby

Snow Depth

Station Depth Elevation
Mesa Lakes 0 in 10000 ft
Park Reservoir 0 in 9960 ft
Columbine Pass 0 in 9400 ft
Overland Reservoir 0 in 9880 ft
McClure Pass 4 in 9500 ft

Earthquake Activity

City Distance Mag. Time & Date
No recent earthquake activity has been reported nearby.
Minimum magnitude displayed is 2.5.

Coastal Water Temperatures

Place Temperature
No Stations Reporting

Nearby Weather Stations